createdAt,value
2022-10-31T00:00:30.618Z,12.20
2022-10-31T00:02:57.413Z,12.10
2022-10-31T00:05:24.190Z,12.08
2022-10-31T00:07:53.676Z,12.26
2022-10-31T00:10:20.212Z,12.20
2022-10-31T00:12:46.745Z,12.17
2022-10-31T00:15:13.290Z,12.21
2022-10-31T00:17:39.817Z,12.20
2022-10-31T00:20:06.992Z,12.12
2022-10-31T00:22:33.478Z,11.91
2022-10-31T00:24:59.984Z,12.17
2022-10-31T00:27:26.517Z,12.08
2022-10-31T00:29:54.630Z,12.13
2022-10-31T00:32:21.493Z,12.12
2022-10-31T00:34:48.438Z,12.06
2022-10-31T00:37:14.979Z,12.05
2022-10-31T00:39:46.104Z,12.01
2022-10-31T00:42:12.606Z,11.90
2022-10-31T00:44:42.240Z,11.91
2022-10-31T00:47:08.816Z,11.95
2022-10-31T00:49:35.352Z,11.95
2022-10-31T00:52:01.828Z,11.93
2022-10-31T00:54:28.393Z,11.91
2022-10-31T00:56:55.234Z,11.91
2022-10-31T00:59:21.795Z,11.80
2022-10-31T01:01:48.437Z,11.87
2022-10-31T01:04:15.768Z,11.84
2022-10-31T01:06:42.515Z,11.75
2022-10-31T01:09:09.027Z,11.76
2022-10-31T01:11:36.057Z,11.80
2022-10-31T01:14:06.496Z,11.69
2022-10-31T01:16:33.081Z,11.69
2022-10-31T01:18:59.601Z,11.63
2022-10-31T01:21:29.328Z,11.55
2022-10-31T01:23:59.616Z,11.57
2022-10-31T01:26:28.745Z,11.62
2022-10-31T01:28:58.325Z,11.62
2022-10-31T01:31:27.148Z,11.63
2022-10-31T01:33:54.379Z,11.62
2022-10-31T01:36:25.550Z,11.62
2022-10-31T01:38:54.420Z,11.55
2022-10-31T01:41:23.672Z,11.54
2022-10-31T01:43:52.239Z,11.52
2022-10-31T01:46:24.719Z,11.51
2022-10-31T01:48:53.910Z,11.46
2022-10-31T01:51:24.370Z,11.51
2022-10-31T01:53:52.807Z,11.50
2022-10-31T01:56:19.818Z,11.41
2022-10-31T01:58:47.391Z,11.51
2022-10-31T02:01:17.852Z,11.50
2022-10-31T02:03:47.294Z,11.36
2022-10-31T02:06:42.399Z,11.38
2022-10-31T02:09:13.195Z,11.35
2022-10-31T02:11:41.075Z,11.35
2022-10-31T02:14:10.914Z,11.24
2022-10-31T02:16:37.443Z,11.25
2022-10-31T02:19:08.823Z,11.26
2022-10-31T02:21:47.109Z,11.18
2022-10-31T02:24:30.066Z,11.20
2022-10-31T02:27:15.336Z,11.14
2022-10-31T02:29:56.696Z,11.15
2022-10-31T02:32:33.020Z,11.14
2022-10-31T02:35:11.059Z,11.08
2022-10-31T02:37:40.206Z,11.00
2022-10-31T02:40:36.656Z,11.00
2022-10-31T02:43:36.714Z,10.94
2022-10-31T02:46:20.240Z,11.04
2022-10-31T02:48:49.477Z,11.05
2022-10-31T02:51:17.451Z,11.02
2022-10-31T02:53:43.998Z,10.95
2022-10-31T02:56:17.722Z,10.93
2022-10-31T02:58:52.857Z,10.93
2022-10-31T03:01:34.865Z,10.93
2022-10-31T03:04:20.536Z,10.93
2022-10-31T03:06:58.295Z,10.86
2022-10-31T03:09:43.114Z,10.92
2022-10-31T03:12:23.716Z,10.60
2022-10-31T03:15:05.996Z,10.74
2022-10-31T03:17:38.335Z,10.73
2022-10-31T03:20:09.512Z,10.80
2022-10-31T03:22:38.767Z,10.78
2022-10-31T03:25:06.775Z,10.78
2022-10-31T03:27:35.885Z,10.78
2022-10-31T03:30:06.314Z,10.72
2022-10-31T03:32:47.667Z,10.74
2022-10-31T03:35:18.209Z,10.74
2022-10-31T03:37:47.355Z,10.74
2022-10-31T03:40:17.582Z,10.74
2022-10-31T03:42:49.604Z,10.73
2022-10-31T03:45:24.492Z,10.62
2022-10-31T03:47:52.747Z,10.70
2022-10-31T03:50:19.925Z,10.68
2022-10-31T03:52:59.254Z,10.68
2022-10-31T03:55:31.199Z,10.67
2022-10-31T03:58:26.418Z,10.65
2022-10-31T04:00:57.117Z,10.63
2022-10-31T04:03:27.916Z,10.59
2022-10-31T04:06:00.910Z,10.54
2022-10-31T04:08:34.538Z,10.53
2022-10-31T04:11:03.689Z,10.57
2022-10-31T04:13:34.793Z,10.56
2022-10-31T04:16:11.330Z,10.29
2022-10-31T04:18:40.909Z,10.55
2022-10-31T04:21:09.043Z,10.43
2022-10-31T04:23:37.178Z,10.22
2022-10-31T04:26:24.116Z,10.43
2022-10-31T04:28:51.438Z,10.28
2022-10-31T04:31:18.263Z,10.35
2022-10-31T04:33:47.619Z,10.35
2022-10-31T04:36:14.358Z,10.34
2022-10-31T04:38:42.255Z,10.31
2022-10-31T04:41:28.753Z,10.30
2022-10-31T04:44:01.643Z,10.30
2022-10-31T04:46:28.176Z,10.31
2022-10-31T04:48:58.210Z,10.34
2022-10-31T04:51:24.826Z,10.32
2022-10-31T04:53:52.507Z,10.29
2022-10-31T04:56:39.310Z,10.25
2022-10-31T04:59:12.381Z,10.22
2022-10-31T05:01:47.654Z,10.19
2022-10-31T05:04:14.298Z,10.17
2022-10-31T05:06:42.651Z,10.15
2022-10-31T05:09:09.204Z,10.04
2022-10-31T05:11:35.773Z,10.12
2022-10-31T05:14:17.819Z,10.10
2022-10-31T05:17:16.012Z,10.09
2022-10-31T05:20:05.512Z,9.91
2022-10-31T05:22:53.397Z,10.11
2022-10-31T05:25:22.147Z,10.11
2022-10-31T05:27:51.708Z,10.08
2022-10-31T05:30:21.556Z,10.10
2022-10-31T05:32:49.978Z,10.07
2022-10-31T05:35:36.789Z,10.07
2022-10-31T05:38:22.722Z,10.05
2022-10-31T05:40:49.339Z,10.00
2022-10-31T05:43:16.002Z,10.03
2022-10-31T05:45:42.519Z,10.02
2022-10-31T05:48:23.133Z,10.04
2022-10-31T05:51:08.105Z,10.02
2022-10-31T05:53:35.090Z,9.99
2022-10-31T05:56:01.701Z,10.02
2022-10-31T05:58:29.063Z,9.97
2022-10-31T06:01:03.577Z,10.02
2022-10-31T06:03:30.369Z,10.01
2022-10-31T06:05:57.876Z,9.99
2022-10-31T06:08:29.726Z,9.99
2022-10-31T06:10:59.393Z,10.02
2022-10-31T06:13:45.891Z,9.94
2022-10-31T06:16:23.449Z,10.05
2022-10-31T06:18:51.027Z,9.99
2022-10-31T06:21:19.217Z,10.07
2022-10-31T06:23:48.446Z,10.06
2022-10-31T06:26:44.246Z,10.03
2022-10-31T06:29:11.220Z,9.92
2022-10-31T06:32:06.882Z,9.94
2022-10-31T06:34:39.944Z,10.01
2022-10-31T06:37:08.983Z,10.07
2022-10-31T06:39:36.141Z,10.10
2022-10-31T06:42:03.345Z,10.09
2022-10-31T06:44:31.534Z,10.11
2022-10-31T06:46:58.067Z,10.14
2022-10-31T06:49:33.465Z,10.09
2022-10-31T06:52:02.829Z,10.24
2022-10-31T06:54:29.563Z,10.25
2022-10-31T06:56:56.686Z,10.31
2022-10-31T06:59:25.053Z,10.31
2022-10-31T07:02:11.550Z,10.42
2022-10-31T07:04:39.813Z,10.42
2022-10-31T07:07:07.306Z,10.41
2022-10-31T07:09:35.245Z,10.55
2022-10-31T07:12:04.293Z,10.50
2022-10-31T07:14:32.866Z,10.64
2022-10-31T07:16:59.399Z,10.66
2022-10-31T07:19:32.659Z,10.78
2022-10-31T07:21:59.260Z,10.86
2022-10-31T07:24:28.495Z,10.94
2022-10-31T07:27:20.985Z,11.04
2022-10-31T07:29:48.758Z,11.12
2022-10-31T07:32:16.739Z,11.20
2022-10-31T07:34:50.696Z,11.29
2022-10-31T07:37:37.552Z,11.35
2022-10-31T07:40:05.528Z,11.35
2022-10-31T07:42:37.110Z,11.52
2022-10-31T07:45:05.175Z,11.61
2022-10-31T07:48:09.744Z,11.67
2022-10-31T07:50:56.233Z,11.89
2022-10-31T07:53:52.353Z,12.00
2022-10-31T07:56:28.566Z,12.08
2022-10-31T07:58:55.376Z,12.19
2022-10-31T08:01:21.942Z,12.18
2022-10-31T08:04:06.869Z,12.28
2022-10-31T08:06:51.958Z,12.46
2022-10-31T08:09:27.571Z,12.54
2022-10-31T08:11:56.457Z,12.63
2022-10-31T08:14:23.384Z,12.67
2022-10-31T08:16:53.664Z,12.82
2022-10-31T08:19:20.824Z,12.87
2022-10-31T08:21:47.524Z,13.04
2022-10-31T08:24:15.028Z,13.21
2022-10-31T08:26:42.790Z,13.45
2022-10-31T08:29:10.949Z,13.68
2022-10-31T08:31:42.588Z,13.86
2022-10-31T08:34:48.195Z,14.23
2022-10-31T08:37:37.592Z,14.49
2022-10-31T08:40:07.712Z,14.64
2022-10-31T08:42:35.702Z,14.84
2022-10-31T08:45:02.775Z,15.16
2022-10-31T08:47:31.367Z,15.31
2022-10-31T08:49:58.447Z,15.49
2022-10-31T08:52:51.261Z,15.55
2022-10-31T08:55:13.313Z,15.77
2022-10-31T08:58:00.147Z,15.93
2022-10-31T09:00:35.927Z,16.23
2022-10-31T09:03:21.314Z,16.46
2022-10-31T09:05:48.148Z,16.64
2022-10-31T09:08:16.927Z,16.79
2022-10-31T09:10:46.377Z,16.98
2022-10-31T09:13:21.126Z,17.20
2022-10-31T09:16:22.832Z,17.37
2022-10-31T09:18:49.376Z,17.44
2022-10-31T09:21:17.017Z,17.62
2022-10-31T09:23:44.025Z,17.79
2022-10-31T09:26:10.642Z,17.82
2022-10-31T09:28:38.806Z,17.76
2022-10-31T09:31:09.062Z,17.65
2022-10-31T09:33:54.858Z,17.74
2022-10-31T09:36:37.886Z,17.72
2022-10-31T09:39:06.369Z,17.64
2022-10-31T09:41:54.605Z,17.87
2022-10-31T09:44:47.500Z,17.99
2022-10-31T09:47:38.687Z,17.96
2022-10-31T09:50:40.539Z,18.18
2022-10-31T09:54:02.011Z,17.94
2022-10-31T09:56:32.012Z,17.72
2022-10-31T09:59:01.719Z,17.50
2022-10-31T10:01:35.722Z,17.62
2022-10-31T10:04:21.035Z,17.68
2022-10-31T10:07:15.354Z,17.56
2022-10-31T10:09:45.552Z,17.66
2022-10-31T10:13:08.197Z,17.64
2022-10-31T10:15:57.982Z,17.30
2022-10-31T10:18:45.206Z,17.05
2022-10-31T10:21:21.609Z,16.92
2022-10-31T10:24:16.627Z,17.01
2022-10-31T10:26:51.550Z,17.01
2022-10-31T10:29:35.160Z,17.05
2022-10-31T10:32:10.392Z,17.17
2022-10-31T10:34:50.303Z,17.38
2022-10-31T10:37:39.992Z,17.42
2022-10-31T10:40:17.714Z,17.68
2022-10-31T10:43:19.598Z,17.86
2022-10-31T10:46:11.756Z,17.87
2022-10-31T10:48:54.611Z,17.78
2022-10-31T10:51:46.992Z,17.86
2022-10-31T10:54:58.758Z,17.72
2022-10-31T10:57:37.165Z,17.56
2022-10-31T11:00:32.626Z,17.40
2022-10-31T11:02:59.323Z,17.38
2022-10-31T11:05:37.872Z,17.46
2022-10-31T11:08:05.839Z,17.70
2022-10-31T11:10:33.187Z,17.76
2022-10-31T11:13:04.975Z,17.60
2022-10-31T11:15:36.098Z,17.48
2022-10-31T11:18:02.714Z,17.43
2022-10-31T11:20:35.676Z,17.64
2022-10-31T11:23:23.110Z,17.31
2022-10-31T11:25:58.879Z,17.62
2022-10-31T11:28:26.616Z,17.59
2022-10-31T11:31:01.317Z,17.43
2022-10-31T11:33:36.458Z,17.53
2022-10-31T11:36:21.098Z,17.51
2022-10-31T11:38:48.314Z,17.51
2022-10-31T11:41:18.426Z,17.46
2022-10-31T11:44:05.745Z,17.53
2022-10-31T11:46:51.943Z,17.53
2022-10-31T11:49:29.606Z,17.59
2022-10-31T11:52:00.211Z,17.65
2022-10-31T11:54:33.257Z,17.81
2022-10-31T11:56:59.763Z,17.87
2022-10-31T11:59:31.808Z,17.96
2022-10-31T12:02:01.133Z,17.89
2022-10-31T12:04:38.202Z,18.02
2022-10-31T12:07:04.768Z,18.19
2022-10-31T12:09:34.819Z,18.28
2022-10-31T12:12:11.289Z,18.46
2022-10-31T12:14:56.578Z,18.53
2022-10-31T12:17:29.235Z,18.80
2022-10-31T12:20:24.732Z,18.96
2022-10-31T12:23:07.373Z,18.94
2022-10-31T12:26:04.989Z,18.97
2022-10-31T12:28:47.208Z,19.10
2022-10-31T12:31:29.112Z,19.57
2022-10-31T12:34:20.464Z,19.72
2022-10-31T12:36:46.936Z,19.92
2022-10-31T12:39:38.924Z,20.08
2022-10-31T12:42:36.441Z,20.21
2022-10-31T12:45:03.592Z,20.38
2022-10-31T12:47:30.104Z,20.45
2022-10-31T12:50:15.511Z,20.52
2022-10-31T12:53:01.001Z,20.40
2022-10-31T12:55:42.505Z,20.25
2022-10-31T12:58:14.604Z,20.08
2022-10-31T13:00:45.590Z,20.07
2022-10-31T13:03:12.213Z,20.00
2022-10-31T13:05:43.526Z,19.66
2022-10-31T13:08:15.451Z,19.40
2022-10-31T13:10:46.693Z,19.65
2022-10-31T13:13:22.192Z,19.48
2022-10-31T13:15:52.615Z,19.36
2022-10-31T13:18:29.016Z,19.22
2022-10-31T13:20:58.449Z,19.15
2022-10-31T13:23:50.524Z,19.13
2022-10-31T13:26:34.030Z,19.05
2022-10-31T13:29:27.003Z,18.97
2022-10-31T13:31:56.593Z,18.95
2022-10-31T13:34:43.190Z,18.88
2022-10-31T13:37:54.794Z,18.91
2022-10-31T13:40:39.427Z,18.89
2022-10-31T13:43:20.401Z,18.90
2022-10-31T13:45:55.291Z,18.65
2022-10-31T13:48:35.550Z,18.91
2022-10-31T13:51:05.717Z,18.88
2022-10-31T13:53:58.293Z,18.76
2022-10-31T13:56:34.147Z,18.86
2022-10-31T13:59:07.954Z,18.91
2022-10-31T14:01:34.855Z,18.89
2022-10-31T14:04:13.997Z,18.74
2022-10-31T14:06:49.422Z,18.74
2022-10-31T14:09:30.086Z,18.61
2022-10-31T14:11:59.888Z,18.41
2022-10-31T14:14:33.431Z,18.44
2022-10-31T14:17:00.187Z,18.35
2022-10-31T14:19:27.393Z,18.26
2022-10-31T14:21:54.272Z,18.25
2022-10-31T14:24:23.532Z,18.18
2022-10-31T14:27:00.378Z,18.11
2022-10-31T14:29:35.145Z,18.05
2022-10-31T14:32:23.671Z,17.90
2022-10-31T14:34:56.347Z,17.90
2022-10-31T14:37:56.774Z,17.86
2022-10-31T14:40:40.833Z,17.76
2022-10-31T14:43:35.212Z,17.71
2022-10-31T14:46:42.727Z,17.58
2022-10-31T14:49:33.638Z,17.61
2022-10-31T14:52:00.327Z,17.59
2022-10-31T14:54:33.206Z,17.54
2022-10-31T14:57:17.678Z,17.53
2022-10-31T14:59:50.315Z,17.42
2022-10-31T15:02:25.438Z,17.23
2022-10-31T15:04:53.977Z,17.12
2022-10-31T15:07:25.228Z,17.11
2022-10-31T15:10:21.555Z,16.94
2022-10-31T15:12:48.146Z,16.96
2022-10-31T15:15:23.409Z,16.89
2022-10-31T15:18:00.067Z,16.92
2022-10-31T15:20:30.381Z,16.98
2022-10-31T15:22:58.853Z,16.97
2022-10-31T15:25:28.426Z,16.96
2022-10-31T15:27:55.133Z,16.68
2022-10-31T15:30:21.767Z,16.64
2022-10-31T15:32:57.594Z,16.79
2022-10-31T15:35:28.058Z,16.61
2022-10-31T15:37:55.359Z,16.66
2022-10-31T15:40:25.010Z,16.60
2022-10-31T15:43:01.737Z,16.53
2022-10-31T15:45:31.092Z,16.23
2022-10-31T15:48:00.711Z,16.34
2022-10-31T15:50:41.408Z,16.29
2022-10-31T15:53:20.539Z,16.20
2022-10-31T15:55:52.297Z,16.07
2022-10-31T15:58:19.446Z,15.94
2022-10-31T16:00:57.285Z,15.70
2022-10-31T16:03:29.565Z,15.88
2022-10-31T16:06:01.866Z,15.65
2022-10-31T16:08:31.433Z,15.67
2022-10-31T16:11:08.368Z,15.61
2022-10-31T16:13:53.227Z,15.53
2022-10-31T16:16:34.733Z,15.49
2022-10-31T16:19:04.289Z,15.44
2022-10-31T16:21:37.407Z,15.38
2022-10-31T16:24:31.781Z,15.30
2022-10-31T16:27:05.109Z,15.23
2022-10-31T16:29:44.099Z,15.04
2022-10-31T16:32:29.169Z,14.98
2022-10-31T16:35:02.969Z,15.02
2022-10-31T16:37:29.717Z,14.99
2022-10-31T16:39:56.339Z,14.96
2022-10-31T16:42:22.926Z,14.89
2022-10-31T16:44:49.783Z,14.80
2022-10-31T16:47:17.788Z,14.84
2022-10-31T16:49:47.278Z,14.79
2022-10-31T16:52:13.895Z,14.77
2022-10-31T16:54:40.601Z,14.68
2022-10-31T16:57:07.715Z,14.66
2022-10-31T16:59:35.083Z,14.61
2022-10-31T17:02:03.323Z,14.47
2022-10-31T17:04:30.126Z,14.49
2022-10-31T17:06:56.676Z,14.54
2022-10-31T17:09:23.186Z,14.48
2022-10-31T17:11:52.692Z,14.54
2022-10-31T17:14:19.655Z,14.49
2022-10-31T17:16:46.497Z,14.50
2022-10-31T17:19:13.561Z,14.33
2022-10-31T17:21:40.813Z,14.44
2022-10-31T17:24:12.295Z,14.35
2022-10-31T17:26:38.911Z,14.34
2022-10-31T17:29:05.433Z,14.29
2022-10-31T17:31:36.277Z,14.20
2022-10-31T17:34:05.197Z,14.17
2022-10-31T17:36:33.415Z,14.09
2022-10-31T17:39:00.105Z,14.06
2022-10-31T17:41:26.599Z,14.00
2022-10-31T17:43:57.058Z,13.89
2022-10-31T17:46:23.683Z,13.92
2022-10-31T17:48:50.247Z,13.82
2022-10-31T17:51:17.398Z,13.85
2022-10-31T17:53:43.999Z,13.75
2022-10-31T17:56:10.882Z,13.72
2022-10-31T17:58:38.158Z,13.67
2022-10-31T18:01:10.356Z,13.53
2022-10-31T18:03:37.762Z,13.42
2022-10-31T18:06:04.538Z,13.49
2022-10-31T18:08:33.192Z,13.46
2022-10-31T18:11:00.616Z,13.54
2022-10-31T18:13:28.252Z,13.55
2022-10-31T18:15:55.359Z,13.41
2022-10-31T18:18:22.164Z,13.46
2022-10-31T18:20:48.745Z,13.41
2022-10-31T18:23:15.270Z,13.38
2022-10-31T18:25:43.434Z,13.46
2022-10-31T18:28:10.248Z,13.47
2022-10-31T18:30:41.430Z,13.46
2022-10-31T18:33:08.905Z,13.44
2022-10-31T18:35:39.365Z,13.37
2022-10-31T18:38:07.063Z,13.25
2022-10-31T18:40:35.915Z,13.25
2022-10-31T18:43:03.403Z,13.02
2022-10-31T18:45:41.659Z,13.17
2022-10-31T18:48:14.453Z,13.07
2022-10-31T18:50:41.503Z,13.07
2022-10-31T18:53:08.440Z,13.09
2022-10-31T18:55:39.881Z,13.05
2022-10-31T18:58:08.000Z,12.97
2022-10-31T19:00:34.529Z,12.99
2022-10-31T19:03:01.615Z,12.97
2022-10-31T19:05:28.387Z,12.82
2022-10-31T19:07:54.871Z,12.79
2022-10-31T19:10:21.367Z,12.85
2022-10-31T19:12:47.948Z,12.85
2022-10-31T19:15:14.517Z,12.77
2022-10-31T19:17:41.029Z,12.78
2022-10-31T19:20:08.406Z,12.48
2022-10-31T19:22:34.963Z,12.76
2022-10-31T19:25:04.899Z,12.75
2022-10-31T19:27:34.096Z,12.71
2022-10-31T19:30:01.232Z,12.57
2022-10-31T19:32:27.746Z,12.46
2022-10-31T19:34:54.249Z,12.59
2022-10-31T19:37:20.760Z,12.56
2022-10-31T19:39:47.307Z,12.54
2022-10-31T19:42:13.898Z,12.52
2022-10-31T19:44:40.556Z,12.42
2022-10-31T19:47:07.157Z,12.45
2022-10-31T19:49:33.713Z,12.40
2022-10-31T19:52:00.260Z,12.34
2022-10-31T19:54:26.777Z,12.31
2022-10-31T19:56:53.287Z,12.31
2022-10-31T19:59:19.845Z,12.14
2022-10-31T20:01:46.440Z,12.21
2022-10-31T20:04:13.062Z,12.20
2022-10-31T20:06:41.113Z,12.12
2022-10-31T20:09:10.115Z,12.17
2022-10-31T20:11:38.768Z,12.16
2022-10-31T20:14:06.039Z,12.16
2022-10-31T20:16:32.636Z,12.16
2022-10-31T20:19:00.917Z,12.16
2022-10-31T20:21:29.546Z,12.13
2022-10-31T20:24:01.758Z,12.03
2022-10-31T20:26:30.148Z,12.04
2022-10-31T20:28:57.932Z,12.13
2022-10-31T20:31:27.690Z,12.03
2022-10-31T20:33:58.779Z,12.10
2022-10-31T20:36:28.489Z,12.04
2022-10-31T20:38:55.259Z,11.92
2022-10-31T20:41:21.894Z,12.07
2022-10-31T20:43:48.614Z,11.93
2022-10-31T20:46:18.358Z,11.92
2022-10-31T20:48:45.786Z,11.87
2022-10-31T20:53:43.541Z,11.80
2022-10-31T20:56:12.408Z,11.79
2022-10-31T20:58:40.489Z,11.79
2022-10-31T21:01:16.175Z,11.78
2022-10-31T21:03:43.529Z,11.74
2022-10-31T21:06:11.172Z,11.69
2022-10-31T21:08:38.699Z,11.65
2022-10-31T21:11:08.543Z,11.62
2022-10-31T21:13:40.594Z,11.47
2022-10-31T21:16:29.194Z,11.56
2022-10-31T21:18:55.798Z,11.53
2022-10-31T21:21:32.219Z,11.44
2022-10-31T21:24:02.084Z,11.32
2022-10-31T21:26:30.421Z,11.29
2022-10-31T21:28:58.472Z,11.33
2022-10-31T21:31:26.012Z,11.34
2022-10-31T21:33:52.543Z,11.29
2022-10-31T21:36:19.030Z,11.30
2022-10-31T21:38:50.807Z,11.22
2022-10-31T21:41:18.160Z,11.10
2022-10-31T21:43:47.087Z,11.06
2022-10-31T21:46:16.722Z,11.18
2022-10-31T21:48:44.170Z,11.31
2022-10-31T21:51:13.911Z,11.42
2022-10-31T21:53:59.693Z,11.44
2022-10-31T21:56:27.154Z,11.37
2022-10-31T21:58:54.363Z,11.42
2022-10-31T22:01:22.630Z,11.50
2022-10-31T22:03:49.550Z,11.46
2022-10-31T22:06:16.158Z,11.45
2022-10-31T22:08:43.100Z,11.37
2022-10-31T22:11:15.203Z,11.43
2022-10-31T22:13:43.872Z,11.38
2022-10-31T22:16:13.200Z,11.35
2022-10-31T22:18:40.784Z,11.42
2022-10-31T22:21:10.768Z,11.42
2022-10-31T22:23:37.968Z,11.33
2022-10-31T22:26:22.962Z,11.47
2022-10-31T22:28:55.838Z,11.42
2022-10-31T22:31:24.224Z,11.42
2022-10-31T22:33:51.619Z,11.19
2022-10-31T22:36:21.264Z,11.44
2022-10-31T22:38:48.206Z,11.39
2022-10-31T22:41:35.456Z,11.45
2022-10-31T22:44:03.007Z,11.44
2022-10-31T22:46:31.530Z,11.43
2022-10-31T22:49:00.950Z,11.42
2022-10-31T22:51:30.674Z,11.38
2022-10-31T22:53:57.537Z,11.30
2022-10-31T22:56:29.827Z,11.23
2022-10-31T22:58:57.309Z,11.36
2022-10-31T23:01:27.539Z,11.17
2022-10-31T23:03:54.544Z,11.35
2022-10-31T23:06:23.347Z,11.35
2022-10-31T23:08:51.133Z,11.33
2022-10-31T23:11:25.766Z,11.31
2022-10-31T23:14:10.158Z,11.34
2022-10-31T23:16:41.880Z,11.36
2022-10-31T23:19:10.651Z,11.35
2022-10-31T23:21:54.910Z,11.15
2022-10-31T23:24:36.635Z,11.29
2022-10-31T23:27:09.635Z,11.31
2022-10-31T23:29:46.273Z,11.30
2022-10-31T23:32:14.816Z,11.31
2022-10-31T23:34:41.706Z,11.28
2022-10-31T23:39:40.624Z,11.28
2022-10-31T23:42:07.572Z,11.16
2022-10-31T23:44:34.144Z,11.25
2022-10-31T23:47:00.946Z,11.24
2022-10-31T23:49:28.696Z,11.19
2022-10-31T23:51:56.662Z,11.16
2022-10-31T23:54:23.699Z,11.18
2022-10-31T23:56:50.319Z,10.93
2022-10-31T23:59:16.819Z,11.13
